Time;durP1;ratioP1;P1;durP2;ratioP2;P2;SDS_P1;SDS_P2;PMS_P1;PMS_P2;Temp;Humidity;BMP_temperature;BMP_pressure;BME280_temperature;BME280_humidity;BME280_pressure;Samples;Min_cycle;Max_cycle;Signal;HPM_P1;HPM_P2
2022/01/23 00:00:33;;;;;;;8.85;1.95;;;20.50;54.60;;;;;;4397083;32;20075;-66
2022/01/23 00:03:01;;;;;;;7.13;1.85;;;20.50;54.70;;;;;;4398950;32;20528;-66
2022/01/23 00:05:35;;;;;;;5.50;1.90;;;20.40;54.70;;;;;;4401342;32;20544;-66
2022/01/23 00:08:02;;;;;;;9.43;1.85;;;20.40;54.70;;;;;;4401601;32;20237;-66
2022/01/23 00:10:28;;;;;;;6.22;2.13;;;20.40;54.80;;;;;;4393329;32;20095;-66
2022/01/23 00:13:06;;;;;;;6.70;2.08;;;20.30;54.70;;;;;;4385520;32;20717;-66
2022/01/23 00:18:17;;;;;;;6.13;1.98;;;20.30;55.70;;;;;;4384954;32;20426;-66
2022/01/23 00:20:43;;;;;;;6.43;1.52;;;20.30;54.80;;;;;;4384670;32;20883;-66
2022/01/23 00:23:26;;;;;;;7.10;1.70;;;20.30;54.90;;;;;;4384899;32;20503;-66
2022/01/23 00:31:22;;;;;;;5.25;1.52;;;20.20;54.90;;;;;;4386186;32;20087;-66
2022/01/23 00:33:48;;;;;;;6.32;1.80;;;20.20;55.00;;;;;;4385795;32;20094;-66
2022/01/23 00:36:14;;;;;;;3.50;1.40;;;20.10;55.00;;;;;;4385996;32;20162;-66
2022/01/23 00:38:40;;;;;;;5.53;2.20;;;20.10;55.00;;;;;;4385383;32;20123;-66
2022/01/23 00:41:06;;;;;;;4.60;1.70;;;20.10;55.10;;;;;;4385718;32;20487;-66
2022/01/23 00:43:35;;;;;;;5.30;1.50;;;20.10;55.10;;;;;;4371938;32;20093;-67
2022/01/23 00:51:29;;;;;;;8.65;1.85;;;20.00;55.10;;;;;;4385661;32;20071;-66
2022/01/23 00:53:57;;;;;;;6.47;1.40;;;20.00;55.10;;;;;;4385377;32;20071;-66
2022/01/23 00:56:24;;;;;;;5.43;1.60;;;20.00;55.10;;;;;;4385486;32;20093;-66
2022/01/23 00:58:50;;;;;;;3.88;1.48;;;20.00;55.10;;;;;;4384968;32;20115;-66
2022/01/23 01:01:16;;;;;;;4.63;1.42;;;20.00;55.10;;;;;;4385526;32;20068;-66
2022/01/23 01:03:42;;;;;;;4.60;1.45;;;20.00;55.10;;;;;;4371581;32;20163;-66
2022/01/23 01:06:09;;;;;;;5.90;1.92;;;19.90;55.00;;;;;;4385301;32;20181;-66
2022/01/23 01:08:35;;;;;;;6.22;1.45;;;19.90;55.10;;;;;;4384983;32;20084;-67
2022/01/23 01:13:40;;;;;;;5.75;1.30;;;19.90;55.20;;;;;;4385286;32;20245;-66
2022/01/23 01:33:39;;;;;;;;;;;19.80;55.30;;;;;;4338492;33;20559;-66
2022/01/23 01:38:11;;;;;;;4.25;1.30;;;19.70;55.20;;;;;;4368083;32;20071;-66
2022/01/23 01:40:38;;;;;;;5.15;1.35;;;19.70;55.30;;;;;;4384658;32;20098;-66
2022/01/23 01:43:04;;;;;;;5.57;1.33;;;19.70;55.30;;;;;;4384952;32;20123;-66
2022/01/23 01:45:33;;;;;;;4.15;1.13;;;19.70;55.30;;;;;;4384882;32;20114;-66
2022/01/23 01:48:01;;;;;;;3.75;1.17;;;19.70;55.30;;;;;;4384278;32;20550;-66
2022/01/23 01:50:28;;;;;;;3.47;1.10;;;19.70;55.30;;;;;;4384897;32;20075;-66
2022/01/23 01:52:54;;;;;;;5.38;1.45;;;19.70;55.30;;;;;;4384509;32;20481;-66
2022/01/23 01:55:28;;;;;;;3.10;1.30;;;19.70;55.20;;;;;;4384886;32;20549;-66
2022/01/23 01:58:01;;;;;;;3.75;0.95;;;19.60;55.20;;;;;;4383255;32;20068;-66
2022/01/23 02:10:56;;;;;;;2.90;1.10;;;19.60;55.30;;;;;;4384328;32;20142;-66
2022/01/23 02:13:45;;;;;;;4.88;1.00;;;19.60;55.20;;;;;;4384768;32;20224;-66
2022/01/23 02:56:51;;;;;;;2.97;0.80;;;19.40;55.20;;;;;;4383998;32;20187;-66
2022/01/23 02:59:24;;;;;;;3.33;0.90;;;19.40;55.20;;;;;;4383937;32;20091;-66
2022/01/23 03:02:26;;;;;;;2.50;1.00;;;19.40;55.20;;;;;;4383881;32;20209;-66
2022/01/23 03:04:47;;;;;;;3.10;0.98;;;19.40;55.20;;;;;;4383697;32;20101;-66
2022/01/23 03:13:06;;;;;;;1.58;0.80;;;19.40;56.10;;;;;;4383366;32;20166;-66
2022/01/23 03:15:09;;;;;;;1.58;0.70;;;19.30;55.10;;;;;;4383439;32;20135;-66
2022/01/23 03:31:20;;;;;;;2.03;0.65;;;19.30;55.10;;;;;;4383220;32;20078;-66
2022/01/23 03:33:46;;;;;;;1.83;0.70;;;19.30;55.20;;;;;;4383359;32;20087;-66
2022/01/23 03:36:12;;;;;;;1.80;0.68;;;19.20;55.10;;;;;;4382798;32;20426;-66
2022/01/23 03:38:38;;;;;;;2.42;0.68;;;19.30;55.10;;;;;;4383363;32;20090;-66
2022/01/23 03:41:04;;;;;;;2.28;0.80;;;19.20;55.10;;;;;;4377368;32;20641;-66
2022/01/23 03:43:33;;;;;;;2.28;0.90;;;19.20;55.10;;;;;;4383528;32;20095;-66
2022/01/23 03:51:48;;;;;;;2.38;0.80;;;19.20;55.10;;;;;;4336542;33;20158;-66
2022/01/23 03:54:14;;;;;;;1.35;0.63;;;19.20;55.10;;;;;;4370697;32;20217;-66
2022/01/23 03:56:40;;;;;;;3.20;0.80;;;19.20;55.10;;;;;;4398395;32;20456;-66
2022/01/23 03:59:06;;;;;;;1.25;0.63;;;19.20;55.10;;;;;;4398105;32;20090;-66
2022/01/23 04:01:32;;;;;;;1.42;0.60;;;19.20;55.10;;;;;;4398100;32;20198;-66
2022/01/23 04:04:02;;;;;;;2.17;0.88;;;19.20;55.10;;;;;;4398345;32;20209;-66
2022/01/23 04:06:27;;;;;;;1.85;0.90;;;19.20;55.10;;;;;;4398402;32;20557;-66
2022/01/23 04:08:53;;;;;;;1.75;0.60;;;19.20;55.10;;;;;;4398349;32;20213;-66
2022/01/23 04:11:19;;;;;;;2.30;0.60;;;19.10;55.10;;;;;;4398226;32;20475;-66
2022/01/23 04:14:04;;;;;;;2.15;0.95;;;19.20;55.10;;;;;;4398332;32;20169;-66
2022/01/23 04:16:48;;;;;;;1.60;0.63;;;19.10;55.00;;;;;;4398534;32;20229;-66
2022/01/23 04:19:34;;;;;;;1.23;0.70;;;19.10;55.00;;;;;;4392924;32;20083;-66
2022/01/23 04:59:54;;;;;;;1.42;0.47;;;19.00;55.10;;;;;;4400908;32;20146;-66
2022/01/23 05:04:58;;;;;;;2.58;0.70;;;19.00;55.10;;;;;;4400778;32;20087;-66
2022/01/23 05:07:28;;;;;;;1.40;0.60;;;18.90;55.00;;;;;;4386525;32;20090;-66
2022/01/23 05:09:54;;;;;;;1.10;0.40;;;18.90;55.00;;;;;;4400297;32;20542;-66
2022/01/23 05:12:25;;;;;;;4.63;0.82;;;18.90;55.00;;;;;;4400447;32;20071;-66
2022/01/23 05:14:51;;;;;;;0.82;0.43;;;18.90;55.10;;;;;;4400453;32;20622;-66
2022/01/23 05:17:18;;;;;;;1.55;0.60;;;18.90;55.10;;;;;;4400353;32;20075;-66
2022/01/23 05:19:44;;;;;;;1.20;0.30;;;18.90;55.10;;;;;;4400537;32;20402;-66
2022/01/23 05:25:21;;;;;;;1.40;0.65;;;18.90;55.10;;;;;;4400755;32;20079;-66
2022/01/23 05:27:42;;;;;;;1.13;0.50;;;18.90;55.10;;;;;;4400094;32;20082;-66
2022/01/23 05:30:09;;;;;;;2.22;0.63;;;18.90;55.00;;;;;;4400299;32;20506;-66
2022/01/23 05:32:40;;;;;;;2.03;0.60;;;18.90;55.10;;;;;;4400524;32;20091;-66
2022/01/23 05:35:08;;;;;;;2.40;0.60;;;18.80;55.00;;;;;;4394238;32;20071;-66
2022/01/23 05:37:35;;;;;;;1.23;0.55;;;18.90;55.00;;;;;;4400232;32;20145;-66
2022/01/23 05:40:01;;;;;;;1.20;0.50;;;18.80;55.00;;;;;;4400148;32;20127;-66
2022/01/23 05:42:27;;;;;;;1.77;0.50;;;18.80;55.00;;;;;;4399916;32;20494;-66
2022/01/23 05:44:53;;;;;;;1.33;0.40;;;18.80;55.00;;;;;;4400068;32;20071;-66
2022/01/23 05:47:19;;;;;;;0.95;0.52;;;18.80;55.10;;;;;;4399726;32;20075;-66
2022/01/23 05:49:44;;;;;;;1.73;0.60;;;18.80;55.10;;;;;;4399811;32;20125;-66
2022/01/23 05:52:11;;;;;;;1.35;0.50;;;18.80;55.10;;;;;;4399785;32;20130;-66
2022/01/23 05:54:37;;;;;;;0.70;0.50;;;18.80;55.10;;;;;;4399835;32;20083;-66
2022/01/23 05:57:03;;;;;;;1.92;0.80;;;18.80;55.10;;;;;;4399806;32;20478;-66
2022/01/23 05:59:29;;;;;;;1.27;0.45;;;18.80;55.10;;;;;;4399549;32;20165;-66
2022/01/23 06:01:55;;;;;;;0.88;0.40;;;18.70;55.10;;;;;;4399621;32;20482;-66
2022/01/23 06:04:24;;;;;;;0.80;0.50;;;18.80;55.10;;;;;;4399797;32;20122;-66
2022/01/23 06:06:50;;;;;;;0.93;0.50;;;18.80;55.10;;;;;;4399768;32;20103;-66
2022/01/23 06:09:19;;;;;;;1.60;0.50;;;18.70;55.00;;;;;;4399341;32;20511;-66
2022/01/23 06:11:45;;;;;;;2.75;0.63;;;18.70;55.10;;;;;;4399669;32;20112;-66
2022/01/23 06:14:11;;;;;;;1.67;0.40;;;18.70;55.00;;;;;;4399629;32;20122;-66
2022/01/23 06:16:38;;;;;;;0.55;0.40;;;18.70;55.10;;;;;;4399315;32;20161;-66
2022/01/23 06:19:04;;;;;;;0.95;0.40;;;18.70;55.10;;;;;;4399530;32;20093;-66
2022/01/23 06:21:30;;;;;;;0.98;0.45;;;18.70;55.10;;;;;;4399068;32;20079;-66
2022/01/23 06:26:47;;;;;;;0.98;0.43;;;18.70;55.10;;;;;;4399189;32;20426;-66
2022/01/23 06:29:16;;;;;;;0.63;0.30;;;18.70;55.10;;;;;;4399525;32;20095;-66
2022/01/23 06:31:43;;;;;;;1.63;0.50;;;18.70;55.10;;;;;;4399322;32;20292;-66
2022/01/23 06:34:10;;;;;;;0.70;0.40;;;18.60;55.10;;;;;;4399463;32;20079;-66
2022/01/23 06:36:37;;;;;;;1.73;0.20;;;18.60;55.10;;;;;;4398951;32;20727;-66
2022/01/23 06:39:04;;;;;;;1.35;0.30;;;18.60;55.10;;;;;;4399321;32;20538;-66
2022/01/23 06:41:31;;;;;;;0.32;0.20;;;18.60;55.10;;;;;;4398748;32;20160;-66
2022/01/23 06:43:57;;;;;;;2.60;0.52;;;18.60;55.10;;;;;;4385589;32;20085;-66
2022/01/23 06:46:23;;;;;;;1.15;0.47;;;18.60;55.00;;;;;;4398876;32;20067;-66
2022/01/23 06:48:49;;;;;;;0.93;0.30;;;18.60;55.10;;;;;;4398939;32;20189;-66
2022/01/23 06:51:14;;;;;;;0.38;0.30;;;18.60;55.10;;;;;;4399474;32;20474;-66
2022/01/23 06:53:41;;;;;;;0.90;0.40;;;18.60;55.10;;;;;;4398802;32;20135;-66
2022/01/23 06:56:07;;;;;;;0.57;0.20;;;18.60;55.10;;;;;;4385355;32;20082;-66
2022/01/23 06:58:33;;;;;;;0.60;0.38;;;18.60;55.10;;;;;;4398790;32;20102;-66
2022/01/23 07:00:59;;;;;;;0.68;0.30;;;18.60;55.10;;;;;;4385314;32;20101;-66
2022/01/23 07:03:25;;;;;;;0.68;0.30;;;18.60;55.10;;;;;;4398676;32;20067;-66
2022/01/23 07:05:51;;;;;;;1.55;0.50;;;18.60;55.10;;;;;;4397556;32;20570;-66
2022/01/23 07:08:18;;;;;;;0.77;0.30;;;18.50;55.10;;;;;;4398870;32;20114;-66
2022/01/23 07:10:44;;;;;;;1.10;0.40;;;18.50;55.10;;;;;;4385068;32;20130;-66
2022/01/23 07:13:10;;;;;;;0.70;0.30;;;18.50;55.10;;;;;;4398122;32;20083;-66
2022/01/23 07:15:35;;;;;;;0.73;0.32;;;18.50;55.10;;;;;;4398423;32;20134;-66
2022/01/23 07:18:02;;;;;;;1.33;0.50;;;18.50;55.10;;;;;;4399108;32;20099;-66
2022/01/23 07:20:28;;;;;;;0.85;0.40;;;18.50;55.10;;;;;;4398708;32;20417;-66
2022/01/23 07:22:54;;;;;;;0.60;0.22;;;18.50;55.10;;;;;;4398981;32;20522;-66
2022/01/23 07:25:20;;;;;;;0.40;0.20;;;18.50;55.10;;;;;;4398972;32;20529;-66
2022/01/23 07:27:50;;;;;;;0.82;0.40;;;18.50;55.10;;;;;;4398376;32;20086;-66
2022/01/23 07:32:58;;;;;;;0.95;0.30;;;18.50;55.10;;;;;;4398690;32;20079;-66
2022/01/23 07:35:24;;;;;;;0.77;0.30;;;18.50;55.10;;;;;;4398794;32;20086;-66
2022/01/23 07:37:49;;;;;;;1.17;0.30;;;18.40;55.10;;;;;;4397990;32;20082;-66
2022/01/23 07:40:15;;;;;;;0.82;0.40;;;18.40;55.10;;;;;;4384910;32;20067;-66
2022/01/23 07:42:41;;;;;;;0.70;0.30;;;18.40;55.10;;;;;;4398237;32;20114;-66
2022/01/23 07:45:08;;;;;;;0.32;0.28;;;18.50;55.10;;;;;;4384911;32;20157;-66
2022/01/23 07:47:38;;;;;;;0.75;0.30;;;18.40;55.10;;;;;;4398487;32;20129;-66
2022/01/23 07:50:07;;;;;;;1.15;0.40;;;18.40;55.10;;;;;;4384687;32;20067;-66
2022/01/23 07:52:37;;;;;;;0.77;0.30;;;18.40;55.10;;;;;;4398110;32;20083;-66
2022/01/23 07:55:09;;;;;;;0.80;0.40;;;18.40;55.10;;;;;;4398758;32;20078;-66
2022/01/23 07:57:36;;;;;;;0.50;0.30;;;18.40;55.10;;;;;;4397986;32;20081;-66
2022/01/23 08:00:05;;;;;;;0.47;0.10;;;18.40;55.10;;;;;;4384515;32;20097;-66
2022/01/23 08:02:31;;;;;;;1.48;0.60;;;18.40;55.00;;;;;;4397852;32;20192;-66
2022/01/23 08:04:57;;;;;;;0.70;0.20;;;18.40;55.00;;;;;;4398685;32;20225;-66
2022/01/23 08:09:56;;;;;;;1.45;0.70;;;18.40;55.00;;;;;;4398406;32;20165;-66
2022/01/23 08:12:23;;;;;;;2.20;0.70;;;18.40;54.30;;;;;;4398268;32;20083;-66
2022/01/23 08:14:49;;;;;;;1.48;0.63;;;18.40;53.50;;;;;;4397830;32;20134;-66
2022/01/23 08:17:15;;;;;;;2.67;0.40;;;18.40;53.80;;;;;;4398246;32;20232;-67
2022/01/23 08:19:41;;;;;;;0.70;0.47;;;18.30;53.90;;;;;;4397957;32;20519;-66
2022/01/23 08:22:07;;;;;;;0.80;0.40;;;18.30;54.10;;;;;;4398222;32;20274;-67
2022/01/23 08:24:33;;;;;;;0.85;0.50;;;18.30;54.00;;;;;;4398970;32;20081;-66
2022/01/23 08:26:59;;;;;;;1.08;0.40;;;18.30;54.00;;;;;;4400982;32;20074;-66
2022/01/23 08:29:25;;;;;;;0.68;0.30;;;18.40;54.10;;;;;;4401290;32;20161;-66
2022/01/23 08:31:51;;;;;;;2.28;0.52;;;18.40;54.10;;;;;;4400987;32;20226;-67
2022/01/23 08:34:17;;;;;;;1.48;0.35;;;18.50;54.10;;;;;;4400826;32;20071;-66
2022/01/23 08:36:42;;;;;;;1.27;0.20;;;18.50;53.90;;;;;;4400875;32;20087;-66
2022/01/23 08:39:08;;;;;;;0.50;0.20;;;18.70;53.70;;;;;;4400926;32;20071;-66
2022/01/23 08:41:50;;;;;;;1.08;0.35;;;18.80;53.50;;;;;;4400896;32;20177;-67
2022/01/23 08:44:26;;;;;;;2.17;0.28;;;18.90;53.20;;;;;;4401229;32;20071;-67
2022/01/23 08:46:52;;;;;;;4.05;0.30;;;19.00;52.90;;;;;;4400826;32;20133;-66
2022/01/23 08:49:21;;;;;;;2.05;0.20;;;19.20;52.70;;;;;;4400411;32;20094;-66
2022/01/23 08:51:48;;;;;;;2.10;0.20;;;19.30;52.50;;;;;;4400658;32;20079;-67
2022/01/23 08:54:14;;;;;;;2.55;0.52;;;19.40;52.20;;;;;;4401083;32;20214;-66
2022/01/23 08:56:42;;;;;;;1.08;0.20;;;19.50;52.00;;;;;;4400395;32;20136;-66
2022/01/23 08:59:08;;;;;;;0.85;0.22;;;19.60;51.70;;;;;;4400698;32;20082;-67
2022/01/23 09:01:35;;;;;;;2.05;0.40;;;19.80;51.50;;;;;;4400653;32;20075;-66
2022/01/23 09:04:05;;;;;;;0.43;0.20;;;20.00;51.30;;;;;;4400379;32;20529;-67
2022/01/23 09:06:31;;;;;;;1.15;0.20;;;20.00;50.90;;;;;;4390266;32;20637;-67
2022/01/23 09:08:59;;;;;;;0.45;0.20;;;20.20;50.70;;;;;;4384609;32;20719;-67
2022/01/23 09:14:21;;;;;;;2.03;0.20;;;20.50;50.20;;;;;;4384516;32;20197;-66
2022/01/23 09:16:49;;;;;;;1.02;0.20;;;20.60;49.90;;;;;;4383876;32;20067;-67
2022/01/23 09:19:19;;;;;;;2.53;0.30;;;20.80;49.70;;;;;;4384539;32;20087;-66
2022/01/23 09:21:46;;;;;;;1.33;0.20;;;21.00;49.40;;;;;;4383995;32;20167;-66
2022/01/23 09:24:12;;;;;;;1.67;0.30;;;21.10;49.10;;;;;;4384299;32;20221;-66
2022/01/23 09:26:38;;;;;;;0.60;0.10;;;21.20;48.90;;;;;;4384436;32;20293;-66
2022/01/23 09:29:18;;;;;;;1.25;0.20;;;21.30;48.70;;;;;;4378055;32;20067;-66
2022/01/23 09:31:50;;;;;;;0.98;0.10;;;21.30;48.60;;;;;;4384047;32;20083;-67
2022/01/23 09:34:22;;;;;;;1.45;0.35;;;21.40;48.50;;;;;;4384194;32;20423;-67
2022/01/23 09:36:48;;;;;;;1.98;0.40;;;21.40;48.50;;;;;;4383548;32;20075;-66
2022/01/23 09:39:16;;;;;;;1.00;0.20;;;21.40;48.60;;;;;;4384298;32;20510;-66
2022/01/23 09:41:46;;;;;;;1.75;0.30;;;21.40;48.60;;;;;;4381379;32;20146;-66
2022/01/23 09:44:17;;;;;;;0.50;0.10;;;21.30;48.80;;;;;;4393734;32;20625;-67
2022/01/23 09:46:46;;;;;;;1.00;0.20;;;21.20;48.80;;;;;;4384779;32;20225;-67
2022/01/23 09:49:15;;;;;;;3.00;0.20;;;21.20;49.00;;;;;;4384493;32;20142;-67
2022/01/23 09:51:42;;;;;;;2.28;0.30;;;21.00;49.20;;;;;;4384319;32;20107;-67
2022/01/23 09:54:14;;;;;;;2.30;0.35;;;20.90;49.50;;;;;;4384788;32;20095;-67
2022/01/23 09:56:43;;;;;;;4.30;0.20;;;20.80;49.90;;;;;;4384472;32;20137;-66
2022/01/23 09:59:11;;;;;;;7.32;0.50;;;20.80;50.20;;;;;;4384176;32;20529;-67
2022/01/23 10:01:40;;;;;;;3.72;0.50;;;20.70;50.90;;;;;;4383743;32;20097;-67
2022/01/23 10:04:06;;;;;;;4.43;0.32;;;20.60;51.30;;;;;;4384091;32;20103;-67
2022/01/23 10:06:32;;;;;;;1.95;0.20;;;20.60;51.40;;;;;;4384314;32;20083;-67
2022/01/23 10:08:59;;;;;;;5.32;0.40;;;20.50;51.50;;;;;;4384067;32;20162;-67
2022/01/23 10:11:29;;;;;;;2.45;0.38;;;20.50;51.70;;;;;;4367850;32;20941;-66
2022/01/23 10:13:55;;;;;;;2.70;0.32;;;20.40;51.80;;;;;;4384083;32;20102;-67
2022/01/23 10:16:21;;;;;;;5.70;0.28;;;20.40;51.90;;;;;;4383373;32;20137;-67
2022/01/23 10:18:48;;;;;;;0.65;0.28;;;20.40;52.00;;;;;;4382647;32;20126;-67
2022/01/23 10:21:15;;;;;;;3.03;0.40;;;20.40;51.80;;;;;;4383070;32;20090;-67
2022/01/23 10:23:41;;;;;;;3.42;0.40;;;20.40;51.60;;;;;;4384100;32;20590;-66
2022/01/23 10:26:08;;;;;;;1.33;0.25;;;20.40;51.50;;;;;;4384191;32;20583;-66
2022/01/23 10:28:35;;;;;;;3.92;0.22;;;20.40;51.40;;;;;;4383912;32;20093;-66
2022/01/23 10:31:04;;;;;;;3.28;0.40;;;20.40;51.40;;;;;;4383974;32;20123;-66
2022/01/23 10:33:35;;;;;;;4.20;0.20;;;20.40;51.40;;;;;;4383968;32;20098;-66
2022/01/23 10:36:08;;;;;;;8.00;0.57;;;20.40;51.30;;;;;;4387057;32;20079;-67
2022/01/23 10:39:03;;;;;;;4.80;0.30;;;20.40;51.30;;;;;;4399477;32;20130;-67
2022/01/23 10:50:02;;;;;;;5.90;0.50;;;20.50;51.20;;;;;;4397881;32;20075;-67
2022/01/23 10:52:32;;;;;;;4.10;0.22;;;20.50;51.30;;;;;;4398472;32;20162;-68
2022/01/23 10:55:00;;;;;;;2.67;0.30;;;20.50;51.30;;;;;;4398247;32;20113;-68
2022/01/23 10:57:38;;;;;;;1.33;0.20;;;20.60;51.40;;;;;;4399306;32;20090;-68
2022/01/23 11:00:07;;;;;;;7.65;0.30;;;20.60;51.40;;;;;;4398426;32;20087;-68
2022/01/23 11:02:43;;;;;;;1.42;0.43;;;20.60;51.30;;;;;;4399249;32;20082;-67
2022/01/23 11:05:12;;;;;;;4.07;0.13;;;20.60;51.30;;;;;;4398677;32;20208;-68
2022/01/23 11:07:43;;;;;;;8.27;0.38;;;20.60;51.40;;;;;;4399154;32;20387;-68
2022/01/23 11:10:15;;;;;;;2.47;0.20;;;20.60;51.40;;;;;;4398615;32;20170;-67
2022/01/23 11:18:00;;;;;;;4.32;0.65;;;20.60;51.50;;;;;;4398821;32;20075;-67
2022/01/23 11:20:39;;;;;;;6.07;0.43;;;20.60;51.60;;;;;;4398656;32;20481;-67
2022/01/23 11:23:14;;;;;;;2.00;0.40;;;20.60;51.60;;;;;;4398488;32;20097;-68
2022/01/23 11:25:45;;;;;;;3.05;0.50;;;20.60;51.60;;;;;;4398729;32;20083;-67
2022/01/23 11:28:12;;;;;;;8.50;0.50;;;20.60;51.70;;;;;;4398202;32;20106;-68
2022/01/23 11:30:47;;;;;;;1.55;0.38;;;20.60;51.70;;;;;;4398611;32;20071;-67
2022/01/23 11:33:19;;;;;;;6.25;0.50;;;20.60;51.80;;;;;;4398584;32;20216;-68
2022/01/23 11:35:45;;;;;;;6.72;0.50;;;20.60;51.90;;;;;;4398383;32;20082;-68
2022/01/23 11:38:15;;;;;;;12.60;0.63;;;20.60;52.00;;;;;;4397921;32;20079;-68
2022/01/23 11:54:38;;;;;;;5.40;0.60;;;20.60;52.20;;;;;;4398776;32;20075;-68
2022/01/23 11:57:05;;;;;;;7.85;0.70;;;20.70;52.20;;;;;;4397872;32;20083;-68
2022/01/23 11:59:34;;;;;;;9.02;0.85;;;20.70;52.30;;;;;;4399737;32;20101;-68
2022/01/23 12:02:12;;;;;;;5.78;0.70;;;20.70;52.40;;;;;;4401430;32;20213;-68
2022/01/23 12:04:40;;;;;;;12.48;0.70;;;20.70;52.70;;;;;;4401419;32;20426;-68
2022/01/23 12:07:12;;;;;;;10.32;0.80;;;20.70;52.90;;;;;;4394821;32;20228;-68
2022/01/23 12:09:44;;;;;;;3.38;0.75;;;20.60;53.20;;;;;;4401404;32;20099;-67
2022/01/23 12:17:22;;;;;;;5.68;0.70;;;20.60;53.50;;;;;;4401054;32;20134;-68
2022/01/23 12:19:54;;;;;;;19.80;0.77;;;20.60;53.50;;;;;;4401422;32;20079;-67
2022/01/23 12:22:28;;;;;;;5.15;0.70;;;20.60;53.50;;;;;;4400986;32;20071;-68
2022/01/23 12:25:13;;;;;;;7.20;0.82;;;20.60;53.60;;;;;;4400879;32;20477;-67
2022/01/23 12:27:39;;;;;;;7.80;0.70;;;20.60;53.40;;;;;;4400465;32;20094;-67
2022/01/23 12:30:26;;;;;;;4.75;0.60;;;20.60;53.10;;;;;;4400521;32;20474;-67
2022/01/23 12:33:15;;;;;;;6.32;0.80;;;20.50;52.90;;;;;;4400875;32;20129;-67
2022/01/23 12:35:43;;;;;;;10.90;0.68;;;20.50;52.90;;;;;;4401243;32;20079;-67
2022/01/23 12:38:11;;;;;;;5.78;0.50;;;20.50;52.90;;;;;;4400347;32;20074;-67
2022/01/23 12:40:43;;;;;;;7.53;0.68;;;20.60;53.00;;;;;;4387535;32;20087;-66
2022/01/23 12:43:15;;;;;;;6.00;0.60;;;20.50;53.10;;;;;;4400970;32;20490;-67
2022/01/23 12:45:49;;;;;;;7.93;0.50;;;20.60;53.20;;;;;;4401293;32;20079;-67
2022/01/23 12:48:24;;;;;;;8.05;0.80;;;20.60;53.20;;;;;;4400967;32;20087;-67
2022/01/23 12:51:01;;;;;;;9.10;0.50;;;20.60;53.20;;;;;;4400535;32;20253;-67
2022/01/23 12:53:40;;;;;;;8.73;0.75;;;20.60;53.30;;;;;;4399314;32;20059;-67
2022/01/23 12:56:12;;;;;;;9.90;0.70;;;20.70;53.40;;;;;;4400919;32;20410;-66
2022/01/23 12:58:39;;;;;;;10.02;0.80;;;20.70;53.40;;;;;;4400842;32;20241;-67
2022/01/23 13:01:15;;;;;;;10.23;0.60;;;20.70;53.50;;;;;;4387135;32;20101;-66
2022/01/23 13:03:43;;;;;;;5.00;0.70;;;20.70;53.40;;;;;;4400497;32;20079;-66
2022/01/23 13:06:11;;;;;;;4.80;0.73;;;20.70;53.40;;;;;;4400564;32;20079;-66
2022/01/23 13:08:47;;;;;;;5.97;0.63;;;20.70;53.50;;;;;;4400324;32;20170;-66
2022/01/23 13:11:51;;;;;;;13.45;0.88;;;20.70;53.50;;;;;;4385893;32;20625;-66
2022/01/23 13:14:08;;;;;;;10.60;0.80;;;20.60;53.50;;;;;;4400430;32;20083;-67
2022/01/23 13:16:41;;;;;;;5.85;0.70;;;20.60;53.50;;;;;;4400644;32;20134;-66
2022/01/23 13:19:43;;;;;;;6.15;0.85;;;20.70;53.60;;;;;;4400348;32;20375;-67
2022/01/23 13:30:32;;;;;;;9.18;0.70;;;20.80;53.60;;;;;;4345131;32;20092;-68
2022/01/23 13:33:03;;;;;;;10.35;0.70;;;20.80;53.60;;;;;;4400543;32;20528;-67
2022/01/23 13:35:36;;;;;;;7.55;0.90;;;20.80;53.50;;;;;;4400153;32;20224;-67
2022/01/23 13:38:09;;;;;;;2.43;0.80;;;20.80;53.10;;;;;;4386723;32;20122;-67
2022/01/23 13:40:39;;;;;;;14.30;1.00;;;20.80;52.70;;;;;;4400040;32;20071;-67
2022/01/23 14:00:13;;;;;;;3.80;0.80;;;20.60;50.20;;;;;;4399983;32;20122;-69
2022/01/23 14:02:34;;;;;;;6.65;0.77;;;20.50;49.90;;;;;;4397539;32;20410;-70
2022/01/23 14:05:11;;;;;;;6.63;0.80;;;20.50;49.70;;;;;;4400237;32;20067;-70
2022/01/23 14:07:39;;;;;;;9.30;0.90;;;20.50;49.60;;;;;;4399604;32;20102;-69
2022/01/23 14:10:19;;;;;;;7.15;1.05;;;20.40;49.40;;;;;;4399732;32;20097;-69
2022/01/23 14:12:48;;;;;;;10.13;1.00;;;20.40;49.10;;;;;;4399858;32;20093;-69
2022/01/23 14:15:23;;;;;;;4.78;0.73;;;20.40;49.10;;;;;;4386183;32;20126;-69
2022/01/23 14:18:05;;;;;;;4.63;1.08;;;20.40;48.80;;;;;;4399953;32;20089;-69
2022/01/23 14:20:38;;;;;;;8.18;0.90;;;20.40;48.70;;;;;;4399590;32;20165;-69
2022/01/23 14:23:20;;;;;;;4.85;0.50;;;20.50;49.00;;;;;;4399368;32;20098;-69
2022/01/23 14:26:03;;;;;;;4.18;1.02;;;20.50;49.30;;;;;;4399333;32;20090;-68
2022/01/23 14:28:55;;;;;;;19.40;0.95;;;20.50;49.70;;;;;;4399421;32;20102;-69
2022/01/23 14:31:25;;;;;;;9.32;0.80;;;20.50;49.90;;;;;;4383100;32;20142;-69
2022/01/23 14:33:57;;;;;;;8.00;0.88;;;20.50;50.00;;;;;;4399364;32;20075;-69
2022/01/23 14:36:26;;;;;;;6.47;0.57;;;20.50;50.20;;;;;;4383077;32;20090;-69
2022/01/23 14:39:07;;;;;;;6.40;0.68;;;20.60;50.20;;;;;;4398383;32;20126;-69
2022/01/23 14:41:39;;;;;;;6.20;0.80;;;20.60;50.30;;;;;;4397102;32;20482;-69
2022/01/23 14:44:23;;;;;;;3.42;0.40;;;20.60;50.40;;;;;;4391694;32;20217;-68
2022/01/23 14:46:52;;;;;;;7.00;0.60;;;20.60;50.40;;;;;;4398141;32;20126;-68
2022/01/23 14:49:24;;;;;;;4.20;0.50;;;20.60;50.40;;;;;;4397728;32;20102;-68
2022/01/23 14:51:51;;;;;;;2.03;0.50;;;20.70;50.50;;;;;;4397846;32;20079;-68
2022/01/23 14:54:18;;;;;;;7.57;0.60;;;20.70;50.50;;;;;;4397792;32;20416;-68
2022/01/23 14:56:44;;;;;;;5.22;0.40;;;20.70;50.60;;;;;;4397433;32;20079;-69
2022/01/23 14:59:11;;;;;;;1.00;0.40;;;20.70;50.60;;;;;;4398091;32;20059;-69
2022/01/23 15:01:38;;;;;;;4.57;0.57;;;20.70;50.60;;;;;;4397493;32;20082;-69
2022/01/23 15:04:08;;;;;;;3.80;0.60;;;20.70;50.60;;;;;;4398345;32;20087;-68
2022/01/23 15:06:36;;;;;;;5.43;0.40;;;20.70;50.70;;;;;;4397860;32;20149;-68
2022/01/23 15:09:13;;;;;;;2.40;0.38;;;20.70;50.80;;;;;;4384871;32;20150;-69
2022/01/23 15:11:39;;;;;;;8.48;1.02;;;20.70;50.90;;;;;;4397315;32;20083;-68
2022/01/23 15:14:06;;;;;;;3.67;0.60;;;20.70;51.00;;;;;;4394938;32;20417;-69
2022/01/23 15:16:33;;;;;;;3.90;0.40;;;20.70;51.00;;;;;;4397933;32;20724;-69
2022/01/23 15:19:00;;;;;;;4.18;0.65;;;20.70;51.10;;;;;;4398203;32;20086;-68
2022/01/23 15:21:26;;;;;;;4.20;0.68;;;20.70;51.10;;;;;;4397878;32;20079;-69
2022/01/23 15:23:55;;;;;;;2.53;0.40;;;20.70;51.20;;;;;;4398288;32;20383;-69
2022/01/23 15:26:26;;;;;;;5.05;0.68;;;20.80;51.30;;;;;;4398851;32;20441;-69
2022/01/23 15:28:52;;;;;;;9.13;0.70;;;20.80;51.30;;;;;;4399167;32;20124;-69
2022/01/23 15:31:18;;;;;;;10.27;0.65;;;20.80;51.30;;;;;;4398828;32;20402;-69
2022/01/23 15:33:44;;;;;;;1.58;0.40;;;20.80;51.30;;;;;;4397593;32;20098;-68
2022/01/23 15:36:10;;;;;;;2.78;0.50;;;20.80;51.40;;;;;;4398674;32;20064;-67
2022/01/23 15:38:41;;;;;;;3.28;0.47;;;20.80;51.40;;;;;;4398707;32;20248;-68
2022/01/23 15:41:07;;;;;;;3.88;0.50;;;20.80;51.50;;;;;;4398881;32;20094;-68
2022/01/23 15:43:33;;;;;;;7.90;0.60;;;20.80;51.50;;;;;;4398147;32;20106;-68
2022/01/23 15:45:59;;;;;;;8.75;0.60;;;20.80;51.50;;;;;;4398365;32;20166;-68
2022/01/23 15:48:30;;;;;;;6.25;0.60;;;20.80;51.50;;;;;;4384942;32;20636;-67
2022/01/23 15:51:02;;;;;;;8.98;0.75;;;20.80;51.60;;;;;;4398252;32;20097;-68
2022/01/23 15:53:28;;;;;;;10.82;0.50;;;20.80;51.60;;;;;;4398660;32;20086;-68
2022/01/23 15:55:54;;;;;;;8.02;0.65;;;20.80;51.60;;;;;;4398179;32;20087;-68
2022/01/23 15:58:20;;;;;;;3.95;0.50;;;20.80;51.70;;;;;;4398424;32;20589;-68
2022/01/23 16:00:46;;;;;;;10.40;1.02;;;20.80;51.70;;;;;;4398259;32;20079;-68
2022/01/23 16:03:12;;;;;;;8.45;0.60;;;20.80;51.80;;;;;;4384250;32;20208;-67
2022/01/23 16:05:39;;;;;;;13.52;0.80;;;20.80;52.00;;;;;;4398090;32;20101;-68
2022/01/23 16:08:05;;;;;;;13.90;0.82;;;20.70;52.00;;;;;;4398455;32;20087;-68
2022/01/23 16:10:31;;;;;;;5.28;0.60;;;20.70;52.20;;;;;;4398389;32;20086;-67
2022/01/23 16:12:56;;;;;;;4.18;0.43;;;20.60;52.40;;;;;;4384436;32;20094;-68
2022/01/23 16:15:23;;;;;;;4.35;0.63;;;20.60;52.60;;;;;;4398326;32;20099;-68
2022/01/23 16:17:49;;;;;;;5.80;0.60;;;20.50;52.70;;;;;;4397510;32;20097;-68
2022/01/23 16:20:16;;;;;;;5.25;0.50;;;20.50;52.90;;;;;;4398345;32;20220;-67
2022/01/23 16:22:43;;;;;;;12.13;0.88;;;20.40;53.00;;;;;;4398301;32;20640;-67
2022/01/23 16:25:10;;;;;;;5.10;0.52;;;20.40;53.20;;;;;;4397839;32;20079;-67
2022/01/23 16:27:38;;;;;;;8.40;0.60;;;20.40;53.30;;;;;;4397808;32;20103;-67
2022/01/23 16:30:06;;;;;;;2.65;0.63;;;20.30;53.40;;;;;;4397757;32;20098;-67
2022/01/23 16:32:31;;;;;;;6.95;0.55;;;20.30;53.50;;;;;;4396552;32;20086;-67
2022/01/23 16:34:57;;;;;;;3.13;0.50;;;20.30;53.60;;;;;;4396350;32;20133;-67
2022/01/23 16:37:23;;;;;;;4.22;0.65;;;20.30;53.80;;;;;;4383635;32;20166;-67
2022/01/23 16:39:49;;;;;;;5.00;0.47;;;20.30;53.80;;;;;;4396513;32;20067;-67